Portada
METAR-TAF:

METAR-TAF

Aeroports :

Great Barrier Reef Airport

Illa de Hamilton, Austràlia

latitud: 20-21-29S, longitud: 148-57-06E, altitud: 5 m

Observació

L'informe es va fer fa 23 minuts, a les 21:30 UTC
Vent 15 kt del Est
Temperatura 26°C
Humitat 74%
Pressió 1015 hPa
Visibilitat 10 km o més
Cel ennuvolat a una alçada de 2400 ft
Cel ennuvolat a una alçada de 2900 ft

METAR: YBHM 192130Z AUTO 10015KT 9999 // BKN024 BKN029 26/21 Q1015

Hora: 07:53 (21:53 UTC)

Pronòstic

L'informe es va fer fa 5 hores i 20 minuts, a les 16:33 UTC
Pronòstic vàlid del 19 a les 18 UTC al 20 a les 06 UTC
Vent 14 kt del Est
Visibilitat 10 km o més
Núvols disperses a una alçada de 2000 ft
Cel ennuvolat a una alçada de 3500 ft
xàfecs de pluja
A partir de les 20 a les 0000 UTC
Vent 16 kt del Est
Visibilitat 10 km o més
Núvols disperses a una alçada de 2500 ft

TAF: YBHM 191633Z 1918/2006 09014KT 9999 -SHRA SCT020 BKN035 FM200000 08016KT 9999 SCT025

Observacions i pronòstics meteorològics de més de 4000 aeroports (METAR i TAF).

Les estacions disponibles són els punts grocs i vermells al mapa.

Posi el ratolí al punt desitjat per veure el nom de l'estació.

Feu clic per veure les observacions i els pronòstics meteorològics.

Per canviar el mapa: feu clic els botons verds amb una creu de color negre per apropar; al botó verd amb un guió per allunyar la imatge; o en les fletxes verdes per a mapes adjacents.


METAR-TAF: